Flight Track Log - Related Links

Times and Time Zones

All times are in EST time to prevent confusion due to time zone crossing. See the PDT4233 flight status page for this flight to view local times or setup timezone preferences in your user account.

Time Position Orientation Groundspeed Altitude Reporting Facility
EST Latitude Longitude Course Direction KTS MPH feet Rate Location/Type
Thu 01:56:05 PM 39.8833 -75.2000 323° Northwest 105 121 700  Level Philadelphia TRACON
Thu 01:58:00 PM 40.0275 -75.4071 323° Northwest  Level Estimated
Thu 01:58:05 PM 39.9500 -75.1667 21° North 170 196 3,200  Level Philadelphia TRACON
Thu 01:59:00 PM 40.0792 -75.4627 311° West  Level Estimated
Thu 01:59:11 PM 40.0000 -75.1833 346° North 158 182 4,800  Level Philadelphia TRACON
Thu 02:00:00 PM 40.1309 -75.5183 311° West  Level Estimated
Thu 02:00:05 PM 40.0333 -75.2000 339° North 182 209 5,700  Level Philadelphia TRACON
Thu 02:01:00 PM 40.1846 -75.5707 323° Northwest  Level FlightAware
Thu 02:01:05 PM 40.0667 -75.2500 311° West 160 184 7,100  Level Philadelphia TRACON
Thu 02:03:43 PM 40.1233 -75.3856 299° West 170 196 9,000 743 Climbing New Center
Thu 02:04:43 PM 40.1569 -75.4342 312° West 187 215 9,800 1,000 Climbing New Center
Thu 02:05:43 PM 40.1922 -75.4908 309° West 192 221 11,000 950 Climbing New Center
Thu 02:06:43 PM 40.2211 -75.5444 305° West 175 201 11,700 750 Climbing New Center
Thu 02:07:43 PM 40.2653 -75.5856 325° Northwest 181 208 12,500 900 Climbing New Center
Thu 02:08:43 PM 40.3036 -75.6208 325° Northwest 193 222 13,500 1,000 Climbing New Center
Thu 02:09:43 PM 40.3414 -75.6644 319° Northwest 193 222 14,500 1,000 Climbing New Center
Thu 02:10:43 PM 40.3811 -75.7108 318° Northwest 180 207 15,500 750 Climbing New Center
Thu 02:11:43 PM 40.4167 -75.7542 317° Northwest 180 207 16,000 250 Climbing New Center
Thu 02:12:43 PM 40.4583 -75.8036 318° Northwest 186 214 16,000 -50 Level New Center
Thu 02:13:43 PM 40.4958 -75.8556 314° West 204 235 15,900  Descending New Center
Thu 02:14:43 PM 40.5411 -75.9189 313° West 214 246 16,000  Climbing New Center
Thu 02:15:43 PM 40.5908 -75.9692 322° Northwest 219 252 15,900 -50 Descending New Center
Thu 02:16:43 PM 40.6322 -76.0214 316° Northwest 214 246 15,900  Level New Center
Thu 02:17:43 PM 40.6844 -76.0692 325° Northwest 219 252 15,900  Level New Center
Thu 02:18:43 PM 40.7325 -76.1114 326° Northwest 227 261 15,900  Level New Center
Thu 02:19:43 PM 40.7761 -76.1642 318° Northwest 227 261 15,900  Level New Center
Thu 02:20:43 PM 40.8192 -76.2250 313° West 211 243 15,900  Level New Center
Thu 02:21:43 PM 40.8647 -76.2753 320° Northwest 214 246 15,900 50 Level New Center
Thu 02:22:43 PM 40.9100 -76.3283 318° Northwest 219 252 16,000  Climbing New Center
Thu 02:23:43 PM 40.9514 -76.3786 317° Northwest 219 252 15,900  Descending New Center
Thu 02:24:43 PM 40.9989 -76.4347 318° Northwest 214 246 16,000 50 Climbing New Center
Thu 02:25:43 PM 41.0425 -76.4822 321° Northwest 214 246 16,000 -50 Level New Center
Thu 02:26:43 PM 41.0919 -76.5333 322° Northwest 227 261 15,900 -50 Descending New Center
Thu 02:27:43 PM 41.1433 -76.5928 319° Northwest 227 261 15,900  Level New Center
Thu 02:28:43 PM 41.1861 -76.6517 314° West 227 261 15,900  Level New Center
Thu 02:29:43 PM 41.2378 -76.7058 322° Northwest 227 261 15,900  Level New Center
Thu 02:30:43 PM 41.2872 -76.7572 322° Northwest 227 261 15,900 50 Level New Center
Thu 02:31:43 PM 41.3281 -76.8133 314° West 222 255 16,000 50 Climbing New Center
Thu 02:32:43 PM 41.3733 -76.8669 318° Northwest 217 250 16,000  Level New Center
Thu 02:33:43 PM 41.4269 -76.9161 325° Northwest 217 250 16,000 -50 Level New Center
Thu 02:34:43 PM 41.4786 -76.9653 325° Northwest 223 257 15,900  Descending New Center
Thu 02:35:43 PM 41.5169 -77.0269 310° West 223 257 16,000 50 Climbing New Center
Thu 02:36:43 PM 41.5597 -77.0836 315° West 217 250 16,000  Level New Center
Thu 02:38:50 PM 41.6583 -77.1819 323° Northwest 230 265 16,000  Level Cleveland Center
Thu 02:39:52 PM 41.7161 -77.2500 319° Northwest 231 266 16,000  Level Cleveland Center
Thu 02:40:53 PM 41.7547 -77.3128 310° West 219 252 16,000  Level Cleveland Center
Thu 02:41:55 PM 41.8078 -77.3647 324° Northwest 233 268 16,000  Level Cleveland Center
Thu 02:42:57 PM 41.8606 -77.4186 323° Northwest 239 275 16,000  Level Cleveland Center
Thu 02:43:59 PM 41.9006 -77.4814 311° West 225 259 16,000  Level Cleveland Center
Thu 02:45:00 PM 41.9492 -77.5364 320° Northwest 227 261 16,000 -98 Level Cleveland Center
Thu 02:46:02 PM 41.9981 -77.5908 320° Northwest 227 261 15,800 -290 Descending Cleveland Center
Thu 02:47:04 PM 42.0564 -77.6628 318° Northwest 235 270 15,400 -435 Descending Cleveland Center
Thu 02:48:06 PM 42.1100 -77.7203 321° Northwest 244 281 14,900 -484 Descending Cleveland Center
Thu 02:49:08 PM 42.1572 -77.7861 314° West 244 281 14,400 -488 Descending Cleveland Center
Thu 02:50:09 PM 42.2072 -77.8500 317° Northwest 246 283 13,900 -780 Descending Cleveland Center
Thu 02:51:11 PM 42.2625 -77.9128 320° Northwest 254 292 12,800 -968 Descending Cleveland Center
Thu 02:52:13 PM 42.3125 -77.9822 314° West 257 296 11,900 -878 Descending Cleveland Center
Thu 02:53:14 PM 42.3617 -78.0528 313° West 257 296 11,000 -390 Descending Cleveland Center
Thu 02:54:16 PM 42.4156 -78.1097 322° Northwest 247 284 11,100 -439 Climbing Cleveland Center
Thu 02:55:17 PM 42.4694 -78.1911 312° West 242 278 10,100 -927 Descending Cleveland Center
Thu 02:56:19 PM 42.5183 -78.2614 313° West 252 290 9,200 -871 Descending Cleveland Center
Thu 02:57:21 PM 42.5683 -78.3336 313° West 261 300 8,300 -927 Descending Cleveland Center
Thu 02:58:22 PM 42.6050 -78.4139 302° West 255 293 7,300 -1,024 Descending Cleveland Center
Thu 02:59:24 PM 42.6364 -78.4992 297° West 252 290 6,200 -968 Descending Cleveland Center
Thu 03:00:26 PM 42.6611 -78.6039 288° West 256 295 5,300 -1,065 Descending Cleveland Center
Thu 03:01:28 PM 42.6853 -78.6906 291° West 255 293 4,000 -774 Descending Cleveland Center
Thu 03:02:30 PM 42.7089 -78.7864 289° West 254 292 3,700 -439 Descending Cleveland Center
Thu 03:03:31 PM 42.7294 -78.8853 286° West 260 299 3,100 -341 Descending Cleveland Center
Thu 03:04:33 PM 42.7517 -78.9733 289° West 242 278 3,000 -49 Descending Cleveland Center
Thu 03:05:34 PM 42.7836 -78.9411 37° Northeast 169 194 3,000 -244 Level Cleveland Center
Thu 03:06:36 PM 42.8111 -78.8997 48° Northeast 149 171 2,500 -290 Descending Cleveland Center
Thu 03:07:38 PM 42.8419 -78.8581 45° Northeast 151 174 2,400 -49 Descending Cleveland Center
Thu 03:08:39 PM 42.8697 -78.8219 44° Northeast 138 159 2,400 -220 Level Cleveland Center
Thu 03:09:27 PM 42.8833 -78.8000 50° Northeast 115 132 2,000 -556 Descending Buffalo TRACON
Thu 03:10:27 PM 42.9000 -78.7667 56° Northeast 85 98 1,400 -550 Descending Buffalo TRACON
Thu 03:11:27 PM 42.9167 -78.7500 36° Northeast 87 100 900 -500 Descending Buffalo TRACON

Login

Don't have an account? Register now (free) for customized features, flight alerts, and more!